Time;durP1;ratioP1;P1;durP2;ratioP2;P2;SDS_P1;SDS_P2;PMS_P1;PMS_P2;Temp;Humidity;BMP_temperature;BMP_pressure;BME280_temperature;BME280_humidity;BME280_pressure;Samples;Min_cycle;Max_cycle;Signal;HPM_P1;HPM_P2
2023/01/24 00:01:31;;;;;;;3.50;3.00;;;3.60;99.90;;;;;;4941498;29;21032;-84
2023/01/24 00:03:58;;;;;;;4.38;3.50;;;3.60;99.90;;;;;;4941817;29;20606;-85
2023/01/24 00:06:25;;;;;;;3.58;2.42;;;3.60;99.90;;;;;;4972747;28;20089;-85
2023/01/24 00:08:52;;;;;;;4.07;2.50;;;3.60;99.90;;;;;;4957525;28;20475;-85
2023/01/24 00:11:19;;;;;;;3.45;2.70;;;3.60;99.90;;;;;;4957144;28;20085;-85
2023/01/24 00:13:46;;;;;;;3.20;2.40;;;3.60;99.90;;;;;;4943723;28;20470;-85
2023/01/24 00:16:17;;;;;;;3.60;2.55;;;3.60;99.90;;;;;;4974165;28;20067;-85
2023/01/24 00:18:44;;;;;;;3.90;2.97;;;3.70;99.90;;;;;;4955387;28;20574;-85
2023/01/24 00:21:12;;;;;;;5.25;2.65;;;3.70;99.90;;;;;;4941580;29;20429;-84
2023/01/24 00:23:40;;;;;;;3.75;2.22;;;3.70;99.90;;;;;;4973381;28;20050;-84
2023/01/24 00:26:07;;;;;;;3.42;2.35;;;3.70;99.90;;;;;;4940941;28;20066;-85
2023/01/24 00:28:34;;;;;;;4.57;2.90;;;3.70;99.90;;;;;;4958576;28;20093;-85
2023/01/24 00:31:02;;;;;;;3.50;2.30;;;3.70;99.90;;;;;;4959978;28;20109;-85
2023/01/24 00:33:29;;;;;;;2.90;2.10;;;3.70;99.90;;;;;;4944403;29;20051;-85
2023/01/24 00:35:56;;;;;;;2.78;2.08;;;3.70;99.90;;;;;;4926821;29;20051;-84
2023/01/24 00:38:22;;;;;;;3.60;2.40;;;3.70;99.90;;;;;;4959226;28;20114;-85
2023/01/24 00:40:49;;;;;;;2.38;1.95;;;3.80;99.90;;;;;;4912402;29;20137;-85
2023/01/24 00:43:16;;;;;;;2.95;2.13;;;3.80;99.90;;;;;;4927791;29;20078;-85
2023/01/24 00:45:43;;;;;;;2.75;2.30;;;3.80;99.90;;;;;;4943510;29;20295;-84
2023/01/24 00:48:10;;;;;;;3.35;2.08;;;3.80;99.90;;;;;;4974745;28;20055;-85
2023/01/24 00:50:37;;;;;;;7.18;2.58;;;3.80;99.90;;;;;;4911347;29;20408;-84
2023/01/24 00:53:04;;;;;;;2.60;2.05;;;3.80;99.90;;;;;;4911557;29;20110;-84
2023/01/24 00:55:31;;;;;;;2.67;2.15;;;3.80;99.90;;;;;;4942959;28;20062;-84
2023/01/24 00:57:57;;;;;;;3.60;2.30;;;3.80;99.90;;;;;;4958271;28;20558;-84
2023/01/24 01:00:25;;;;;;;2.42;1.95;;;3.80;99.90;;;;;;4975161;28;20360;-84
2023/01/24 01:02:52;;;;;;;3.15;2.38;;;3.80;99.90;;;;;;4974382;28;20075;-83
2023/01/24 01:05:19;;;;;;;3.28;2.38;;;3.80;99.90;;;;;;4958145;28;20138;-84
2023/01/24 01:07:47;;;;;;;3.92;2.65;;;3.80;99.90;;;;;;4926882;29;20232;-84
2023/01/24 01:10:14;;;;;;;3.00;2.22;;;3.80;99.90;;;;;;4927169;29;20474;-84
2023/01/24 01:12:40;;;;;;;2.97;2.25;;;3.80;99.90;;;;;;4943120;29;20483;-85
2023/01/24 01:15:08;;;;;;;3.08;2.30;;;3.80;99.90;;;;;;4944435;29;20051;-85
2023/01/24 01:17:34;;;;;;;3.83;2.35;;;3.80;99.90;;;;;;4943856;29;20063;-85
2023/01/24 01:20:02;;;;;;;3.00;2.28;;;3.80;99.90;;;;;;4926834;29;20047;-85
2023/01/24 01:22:28;;;;;;;3.50;2.58;;;3.80;99.90;;;;;;4959085;28;20051;-85
2023/01/24 01:24:55;;;;;;;3.25;2.15;;;3.80;99.90;;;;;;4943296;28;20098;-84
2023/01/24 01:27:22;;;;;;;2.70;2.10;;;3.80;99.90;;;;;;4943021;28;20117;-85
2023/01/24 01:29:49;;;;;;;2.70;2.20;;;3.80;99.90;;;;;;4929583;29;20055;-85
2023/01/24 01:32:16;;;;;;;3.72;2.42;;;3.80;99.90;;;;;;4978556;28;20051;-84
2023/01/24 01:34:43;;;;;;;3.28;2.15;;;3.80;99.90;;;;;;4961778;28;20142;-84
2023/01/24 01:37:10;;;;;;;3.17;2.30;;;3.80;99.90;;;;;;4978665;28;20365;-85
2023/01/24 01:39:37;;;;;;;2.65;2.15;;;3.70;99.90;;;;;;4962132;28;20078;-85
2023/01/24 01:42:03;;;;;;;2.97;2.30;;;3.80;99.90;;;;;;4930995;29;20083;-84
2023/01/24 01:44:47;;;;;;;3.35;2.35;;;3.80;99.90;;;;;;4945992;29;20130;-85
2023/01/24 01:47:34;;;;;;;4.20;2.83;;;3.80;99.90;;;;;;4933629;29;20086;-85
2023/01/24 01:50:03;;;;;;;2.88;2.10;;;3.80;99.90;;;;;;4977287;28;20074;-85
2023/01/24 01:52:36;;;;;;;3.22;2.17;;;3.70;99.90;;;;;;4961974;28;20051;-85
2023/01/24 01:55:11;;;;;;;2.58;2.15;;;3.80;99.90;;;;;;4944975;28;20130;-84
2023/01/24 01:57:40;;;;;;;4.13;2.45;;;3.70;99.90;;;;;;4961708;28;20135;-86
2023/01/24 02:00:08;;;;;;;2.35;1.85;;;3.80;99.90;;;;;;4943196;29;20053;-85
2023/01/24 02:02:36;;;;;;;3.05;2.13;;;3.80;99.90;;;;;;4958361;28;20154;-85
2023/01/24 02:05:04;;;;;;;3.15;2.20;;;3.80;99.90;;;;;;4962606;28;20050;-85
2023/01/24 02:07:31;;;;;;;2.92;2.28;;;3.80;99.90;;;;;;4961263;28;20597;-85
2023/01/24 02:09:58;;;;;;;2.53;1.98;;;3.90;99.90;;;;;;4978378;28;20271;-85
2023/01/24 02:12:36;;;;;;;3.08;2.17;;;3.90;99.90;;;;;;4952899;28;20194;-84
2023/01/24 02:17:51;;;;;;;2.30;2.00;;;3.90;99.90;;;;;;4930481;29;20563;-86
2023/01/24 02:20:40;;;;;;;2.03;1.70;;;3.90;99.90;;;;;;4960931;28;20134;-84
2023/01/24 02:23:22;;;;;;;2.78;1.98;;;3.90;99.90;;;;;;4993751;28;20082;-85
2023/01/24 02:26:09;;;;;;;2.67;1.85;;;4.00;99.90;;;;;;4969045;28;20106;-85
2023/01/24 02:28:36;;;;;;;2.80;2.08;;;4.00;99.90;;;;;;4961041;28;20051;-84
2023/01/24 02:31:04;;;;;;;2.65;2.05;;;4.00;99.90;;;;;;4942180;29;20063;-84
2023/01/24 02:33:31;;;;;;;2.28;1.80;;;4.00;99.90;;;;;;4973514;28;20074;-85
2023/01/24 02:36:20;;;;;;;3.17;2.25;;;4.00;99.90;;;;;;4982412;28;20345;-84
2023/01/24 02:38:57;;;;;;;2.97;2.00;;;4.10;99.90;;;;;;4951323;28;20487;-84
2023/01/24 02:41:26;;;;;;;2.50;1.90;;;4.10;99.90;;;;;;4951378;28;20051;-84
2023/01/24 02:43:53;;;;;;;2.40;1.80;;;4.10;99.90;;;;;;4934015;29;20151;-84
2023/01/24 02:46:20;;;;;;;2.58;1.58;;;4.20;99.90;;;;;;4968104;28;20519;-83
2023/01/24 02:48:50;;;;;;;2.50;1.88;;;4.20;99.90;;;;;;4960029;28;20121;-82
2023/01/24 02:54:02;;;;;;;3.60;2.33;;;4.20;99.90;;;;;;4967907;28;20075;-83
2023/01/24 02:59:14;;;;;;;2.38;1.73;;;4.30;99.90;;;;;;4950308;29;20051;-84
2023/01/24 03:01:41;;;;;;;3.58;2.15;;;4.20;99.90;;;;;;4949136;29;20887;-84
2023/01/24 03:04:09;;;;;;;3.03;2.03;;;4.20;99.90;;;;;;4935845;29;20475;-85
2023/01/24 03:06:36;;;;;;;3.08;2.10;;;4.20;99.90;;;;;;4948334;29;20047;-84
2023/01/24 03:09:18;;;;;;;2.63;2.00;;;4.20;99.90;;;;;;4983125;28;20083;-84
2023/01/24 03:11:48;;;;;;;3.60;2.88;;;4.20;99.90;;;;;;4964740;28;20048;-84
2023/01/24 03:36:31;;;;;;;2.92;2.35;;;4.20;99.90;;;;;;4961019;28;20075;-84
2023/01/24 03:41:44;;;;;;;2.55;1.92;;;4.20;99.90;;;;;;4948432;28;20122;-84
2023/01/24 03:44:10;;;;;;;2.70;2.08;;;4.30;99.90;;;;;;4945609;29;20066;-84
2023/01/24 03:46:39;;;;;;;3.10;2.45;;;4.30;99.90;;;;;;4944679;29;20069;-84
2023/01/24 03:49:07;;;;;;;2.90;2.33;;;4.20;99.90;;;;;;4959267;28;20052;-84
2023/01/24 03:54:20;;;;;;;3.95;2.50;;;4.30;99.90;;;;;;4958528;28;20374;-84
2023/01/24 03:56:47;;;;;;;3.53;2.83;;;4.30;99.90;;;;;;4978402;28;20134;-84
2023/01/24 03:59:16;;;;;;;4.25;3.40;;;4.20;99.90;;;;;;4949488;29;20051;-84
2023/01/24 04:01:42;;;;;;;4.68;3.67;;;4.20;99.90;;;;;;4980741;28;20440;-84
2023/01/24 04:04:11;;;;;;;5.97;4.70;;;4.20;99.90;;;;;;4981399;28;20059;-84
2023/01/24 04:06:37;;;;;;;5.22;4.22;;;4.20;99.90;;;;;;4947550;29;20507;-84
2023/01/24 04:09:04;;;;;;;7.30;5.90;;;4.20;99.90;;;;;;4962959;28;20085;-84
2023/01/24 04:11:31;;;;;;;7.30;6.05;;;4.20;99.90;;;;;;4978850;28;20047;-84
2023/01/24 04:13:58;;;;;;;6.93;5.68;;;4.20;99.90;;;;;;4948800;28;20062;-84
2023/01/24 04:16:24;;;;;;;8.65;5.78;;;4.20;99.90;;;;;;4947001;29;20086;-84
2023/01/24 04:18:52;;;;;;;7.00;5.53;;;4.20;99.90;;;;;;4977991;28;20055;-84
2023/01/24 04:21:19;;;;;;;5.65;4.75;;;4.20;99.90;;;;;;4946987;29;20600;-84
2023/01/24 04:23:45;;;;;;;5.90;4.85;;;4.20;99.90;;;;;;4978108;28;20055;-84
2023/01/24 04:26:12;;;;;;;6.40;4.88;;;4.20;99.90;;;;;;4978620;28;20047;-84
2023/01/24 04:28:39;;;;;;;5.82;4.50;;;4.20;99.90;;;;;;4964697;28;20059;-83
2023/01/24 04:31:06;;;;;;;5.82;4.72;;;4.20;99.90;;;;;;4980279;28;20090;-83
2023/01/24 04:33:33;;;;;;;5.45;4.38;;;4.30;99.90;;;;;;4948453;29;20078;-84
2023/01/24 04:36:00;;;;;;;5.82;4.43;;;4.20;99.90;;;;;;4979016;28;20539;-84
2023/01/24 04:38:27;;;;;;;5.93;4.40;;;4.20;99.90;;;;;;4945971;29;20055;-84
2023/01/24 04:41:01;;;;;;;5.72;4.03;;;4.20;99.90;;;;;;4976786;28;20084;-85
2023/01/24 04:43:28;;;;;;;4.63;3.70;;;4.20;99.90;;;;;;4961654;28;20055;-84
2023/01/24 04:45:56;;;;;;;5.40;3.85;;;4.20;99.90;;;;;;4931336;29;20054;-83
2023/01/24 04:48:23;;;;;;;5.28;4.75;;;4.20;99.90;;;;;;4930991;29;20105;-84
2023/01/24 04:50:50;;;;;;;4.85;3.65;;;4.20;99.90;;;;;;4931595;29;20083;-83
2023/01/24 04:53:17;;;;;;;4.85;3.97;;;4.20;99.90;;;;;;4931424;29;20106;-84
2023/01/24 04:55:43;;;;;;;5.18;3.58;;;4.30;99.90;;;;;;4964196;28;20185;-84
2023/01/24 04:58:10;;;;;;;4.45;3.47;;;4.30;99.90;;;;;;4963832;28;20464;-83
2023/01/24 05:00:37;;;;;;;3.80;3.13;;;4.30;99.90;;;;;;4980165;28;20268;-84
2023/01/24 05:03:04;;;;;;;3.70;2.75;;;4.40;99.90;;;;;;4961214;28;20082;-84
2023/01/24 05:05:31;;;;;;;4.03;3.42;;;4.40;99.90;;;;;;4952989;28;20644;-84
2023/01/24 05:07:57;;;;;;;3.47;2.72;;;4.40;99.90;;;;;;4967504;28;20087;-84
2023/01/24 05:10:24;;;;;;;3.75;3.20;;;4.30;99.90;;;;;;4950771;29;20118;-84
2023/01/24 05:12:51;;;;;;;4.38;3.35;;;4.30;99.90;;;;;;4965215;28;20118;-84
2023/01/24 05:15:19;;;;;;;4.07;3.03;;;4.30;99.90;;;;;;4967578;28;20110;-85
2023/01/24 05:17:47;;;;;;;3.70;2.90;;;4.30;99.90;;;;;;4951370;28;20134;-83
2023/01/24 05:20:13;;;;;;;4.32;3.05;;;4.30;99.90;;;;;;4948938;28;20062;-84
2023/01/24 05:22:40;;;;;;;5.05;3.00;;;4.30;99.90;;;;;;4932360;29;20055;-83
2023/01/24 05:25:07;;;;;;;4.32;3.20;;;4.30;99.90;;;;;;4965716;28;20134;-84
2023/01/24 05:27:34;;;;;;;4.55;3.47;;;4.30;99.90;;;;;;4952650;29;20130;-84
2023/01/24 05:30:01;;;;;;;3.90;3.10;;;4.30;99.90;;;;;;4966574;28;20047;-84
2023/01/24 05:32:27;;;;;;;3.60;3.10;;;4.30;99.90;;;;;;4964203;28;20150;-85
2023/01/24 05:34:54;;;;;;;4.28;3.20;;;4.30;99.90;;;;;;4949726;28;20549;-84
2023/01/24 05:37:22;;;;;;;5.47;3.80;;;4.30;99.90;;;;;;4950918;29;20693;-84
2023/01/24 05:39:49;;;;;;;5.15;4.25;;;4.30;99.90;;;;;;4934452;29;20051;-84
2023/01/24 05:42:16;;;;;;;4.28;3.42;;;4.30;99.90;;;;;;4952354;29;20122;-84
2023/01/24 05:44:42;;;;;;;3.83;2.95;;;4.20;99.90;;;;;;4930544;28;20048;-84
2023/01/24 05:47:10;;;;;;;4.15;3.38;;;4.30;99.90;;;;;;4985773;28;20059;-86
2023/01/24 05:49:36;;;;;;;5.38;4.18;;;4.20;99.90;;;;;;4954794;28;20055;-88
2023/01/24 05:52:03;;;;;;;4.55;3.50;;;4.20;99.90;;;;;;4998486;28;20133;-83
2023/01/24 05:54:30;;;;;;;5.88;4.32;;;4.30;99.90;;;;;;4951125;28;20452;-84
2023/01/24 05:56:57;;;;;;;4.93;4.22;;;4.30;99.90;;;;;;4944783;28;20102;-84
2023/01/24 05:59:24;;;;;;;4.95;3.75;;;4.20;99.90;;;;;;4975909;28;20126;-83
2023/01/24 06:01:51;;;;;;;5.03;4.22;;;4.30;99.90;;;;;;4973843;28;20356;-83
2023/01/24 06:04:18;;;;;;;4.82;3.85;;;4.30;99.90;;;;;;4954638;28;20054;-84
2023/01/24 06:06:44;;;;;;;5.55;4.35;;;4.30;99.90;;;;;;4969800;28;20142;-83
2023/01/24 06:09:11;;;;;;;4.88;3.42;;;4.30;99.90;;;;;;4960393;28;20142;-84
2023/01/24 06:11:38;;;;;;;4.97;3.75;;;4.30;99.90;;;;;;4948972;28;20180;-83
2023/01/24 06:14:05;;;;;;;5.22;3.78;;;4.30;99.90;;;;;;4942660;28;20077;-84
2023/01/24 06:16:31;;;;;;;6.68;4.95;;;4.30;99.90;;;;;;4977607;28;20118;-84
2023/01/24 06:18:58;;;;;;;4.68;3.97;;;4.30;99.90;;;;;;4940407;28;20047;-84
2023/01/24 06:21:45;;;;;;;5.47;4.68;;;4.30;99.90;;;;;;4943148;29;20186;-84
2023/01/24 06:24:20;;;;;;;5.65;4.75;;;4.30;99.90;;;;;;4941407;28;20047;-82
2023/01/24 06:26:47;;;;;;;5.40;4.55;;;4.30;99.90;;;;;;4949518;28;20380;-82
2023/01/24 06:29:14;;;;;;;5.22;4.32;;;4.30;99.90;;;;;;4937603;29;20146;-83
2023/01/24 06:31:52;;;;;;;5.03;4.13;;;4.30;99.90;;;;;;4955328;28;20163;-82
2023/01/24 06:34:52;;;;;;;5.53;4.32;;;4.30;99.90;;;;;;4938524;28;20083;-84
2023/01/24 06:37:30;;;;;;;4.30;3.45;;;4.30;99.90;;;;;;4941010;28;20051;-83
2023/01/24 06:39:57;;;;;;;5.25;3.90;;;4.30;99.90;;;;;;4961204;28;20145;-83
2023/01/24 06:42:25;;;;;;;4.82;3.78;;;4.30;99.90;;;;;;4932433;28;20133;-83
2023/01/24 06:44:52;;;;;;;4.97;3.80;;;4.30;99.90;;;;;;4967418;28;20145;-83
2023/01/24 06:47:19;;;;;;;5.82;4.22;;;4.30;99.90;;;;;;4948130;28;20079;-82
2023/01/24 06:49:45;;;;;;;4.35;3.53;;;4.30;99.90;;;;;;4953216;28;20051;-83
2023/01/24 06:52:13;;;;;;;5.35;3.75;;;4.20;99.90;;;;;;4972351;28;20138;-82
2023/01/24 06:54:40;;;;;;;5.15;4.03;;;4.30;99.90;;;;;;4938960;29;20047;-82
2023/01/24 06:57:06;;;;;;;4.38;3.97;;;4.30;99.90;;;;;;4970604;28;20051;-86
2023/01/24 06:59:34;;;;;;;4.57;3.40;;;4.30;99.90;;;;;;4970964;28;20146;-87
2023/01/24 07:02:01;;;;;;;4.85;3.85;;;4.30;99.90;;;;;;4942920;28;20141;-90
2023/01/24 07:04:28;;;;;;;4.95;4.07;;;4.20;99.90;;;;;;4941702;29;20299;-89
2023/01/24 07:06:54;;;;;;;4.15;3.72;;;4.20;99.90;;;;;;4941579;28;20053;-87
2023/01/24 07:09:22;;;;;;;3.95;3.30;;;4.20;99.90;;;;;;4976126;28;20058;-90
2023/01/24 07:11:52;;;;;;;4.10;3.30;;;4.30;99.90;;;;;;4960690;28;20343;-90
2023/01/24 07:14:19;;;;;;;4.85;3.80;;;4.30;99.90;;;;;;4960646;28;20499;-85
2023/01/24 07:16:47;;;;;;;3.15;2.80;;;4.30;99.90;;;;;;4958134;28;20259;-88
2023/01/24 07:19:16;;;;;;;3.83;3.42;;;4.30;99.90;;;;;;4927905;29;20060;-86
2023/01/24 07:21:44;;;;;;;3.40;3.00;;;4.30;99.90;;;;;;4957190;28;20094;-87
2023/01/24 07:24:13;;;;;;;3.63;2.92;;;4.30;99.90;;;;;;4956888;28;20082;-77
2023/01/24 07:26:40;;;;;;;4.38;3.38;;;4.40;99.90;;;;;;4935828;28;20055;-78
2023/01/24 07:29:07;;;;;;;4.38;3.00;;;4.30;99.90;;;;;;4965444;28;20399;-78
2023/01/24 07:31:34;;;;;;;3.70;2.83;;;4.40;99.90;;;;;;4924108;29;20542;-77
2023/01/24 07:34:01;;;;;;;3.83;3.20;;;4.30;99.90;;;;;;4923764;29;20047;-77
2023/01/24 07:36:28;;;;;;;3.70;2.58;;;4.30;99.90;;;;;;4937182;29;20051;-77
2023/01/24 07:38:55;;;;;;;4.00;3.00;;;4.30;99.90;;;;;;4937908;29;20283;-78
2023/01/24 07:41:22;;;;;;;2.22;1.88;;;4.20;99.90;;;;;;4937665;29;20127;-78
2023/01/24 07:43:49;;;;;;;3.35;2.72;;;4.20;99.90;;;;;;4937880;29;20162;-78
2023/01/24 07:46:16;;;;;;;4.78;2.60;;;4.20;99.90;;;;;;4922499;29;20339;-77
2023/01/24 07:48:43;;;;;;;2.67;2.25;;;4.30;99.90;;;;;;4921379;29;20055;-78
2023/01/24 07:51:09;;;;;;;3.78;2.55;;;4.20;99.90;;;;;;4922018;29;20139;-77
2023/01/24 07:53:36;;;;;;;3.58;2.60;;;4.20;99.90;;;;;;4925171;29;20048;-77
2023/01/24 07:56:03;;;;;;;3.25;2.38;;;4.20;99.90;;;;;;4923713;29;20093;-78
2023/01/24 07:58:31;;;;;;;2.67;2.13;;;4.20;99.90;;;;;;4939758;29;20081;-77
2023/01/24 08:00:58;;;;;;;3.15;2.10;;;4.20;99.90;;;;;;4939919;29;20494;-78
2023/01/24 08:03:25;;;;;;;3.05;2.25;;;4.20;99.90;;;;;;4920959;29;20671;-78
2023/01/24 08:05:52;;;;;;;3.05;2.30;;;4.20;99.90;;;;;;4937550;29;20059;-78
2023/01/24 08:08:19;;;;;;;2.92;2.45;;;4.30;99.90;;;;;;4925105;29;20051;-78
2023/01/24 08:10:46;;;;;;;2.65;2.25;;;4.20;99.90;;;;;;4925066;29;20052;-78
2023/01/24 08:13:13;;;;;;;2.83;2.38;;;4.20;99.90;;;;;;4926952;29;20553;-79
2023/01/24 08:15:39;;;;;;;2.40;2.00;;;4.20;99.90;;;;;;4909768;29;20052;-78
2023/01/24 08:18:06;;;;;;;2.75;2.00;;;4.20;99.90;;;;;;4925250;29;20139;-78
2023/01/24 08:20:33;;;;;;;2.55;1.73;;;4.30;99.90;;;;;;4908863;29;20150;-77
2023/01/24 08:23:00;;;;;;;3.53;2.60;;;4.20;99.90;;;;;;4926137;29;20056;-78
2023/01/24 08:25:28;;;;;;;2.92;2.50;;;4.30;99.90;;;;;;4940056;29;20243;-78
2023/01/24 08:27:54;;;;;;;3.85;2.90;;;4.20;99.90;;;;;;4941324;29;20051;-78
2023/01/24 08:30:21;;;;;;;3.20;2.55;;;4.20;99.90;;;;;;4940851;28;20499;-78
2023/01/24 08:32:48;;;;;;;3.47;2.65;;;4.20;99.90;;;;;;4974007;28;20130;-78
2023/01/24 08:35:15;;;;;;;2.72;2.17;;;4.20;99.90;;;;;;4944917;29;20055;-78
2023/01/24 08:37:43;;;;;;;3.65;3.05;;;4.30;99.90;;;;;;4956123;28;20055;-78
2023/01/24 08:40:11;;;;;;;3.00;2.70;;;4.30;99.90;;;;;;4955891;28;20110;-78
2023/01/24 08:42:37;;;;;;;3.35;2.40;;;4.30;99.90;;;;;;4942153;29;20063;-78
2023/01/24 08:45:05;;;;;;;3.10;2.42;;;4.30;99.90;;;;;;4956602;28;20472;-78
2023/01/24 08:47:32;;;;;;;2.80;2.35;;;4.30;99.90;;;;;;4942351;29;20348;-78
2023/01/24 08:49:58;;;;;;;4.07;2.78;;;4.30;99.90;;;;;;4941277;29;20047;-77
2023/01/24 08:52:25;;;;;;;3.50;2.83;;;4.20;99.90;;;;;;4957295;28;20149;-78
2023/01/24 08:54:52;;;;;;;2.80;2.17;;;4.30;99.90;;;;;;4974656;28;20087;-78
2023/01/24 08:57:18;;;;;;;2.85;2.10;;;4.30;99.90;;;;;;4976374;28;20107;-78
2023/01/24 08:59:45;;;;;;;2.65;2.30;;;4.40;99.90;;;;;;4944242;29;20527;-78
2023/01/24 09:02:13;;;;;;;2.83;2.13;;;4.40;99.90;;;;;;4972582;28;20125;-78
2023/01/24 09:04:42;;;;;;;3.03;2.30;;;4.40;99.90;;;;;;4939515;29;20138;-78
2023/01/24 09:07:10;;;;;;;3.30;2.53;;;4.40;99.90;;;;;;4956409;28;20402;-78
2023/01/24 09:09:37;;;;;;;2.92;2.00;;;4.40;99.90;;;;;;4971677;28;20081;-78
2023/01/24 09:12:04;;;;;;;3.65;2.70;;;4.40;99.90;;;;;;4944163;29;20142;-78
2023/01/24 09:14:31;;;;;;;4.25;3.13;;;4.40;99.90;;;;;;4972333;28;20058;-80
2023/01/24 09:16:57;;;;;;;4.00;2.80;;;4.40;99.90;;;;;;4945823;28;20083;-82
2023/01/24 09:19:26;;;;;;;3.83;2.88;;;4.40;99.90;;;;;;4935410;29;20138;-77
2023/01/24 09:21:56;;;;;;;3.28;2.50;;;4.50;99.90;;;;;;4932160;29;20090;-77
2023/01/24 09:24:23;;;;;;;3.35;2.50;;;4.50;99.90;;;;;;4930526;28;20187;-77
2023/01/24 09:26:50;;;;;;;3.20;2.72;;;4.50;99.90;;;;;;4926867;29;20087;-77
2023/01/24 09:29:17;;;;;;;2.85;2.30;;;4.50;99.90;;;;;;4931236;28;20178;-77
2023/01/24 09:31:44;;;;;;;3.97;3.28;;;4.60;99.90;;;;;;4966876;28;20239;-77
2023/01/24 09:34:14;;;;;;;3.35;2.55;;;4.50;99.90;;;;;;4966207;28;20533;-77
2023/01/24 09:36:41;;;;;;;3.50;2.97;;;4.50;99.90;;;;;;4955752;28;20164;-77
2023/01/24 09:39:08;;;;;;;3.20;2.55;;;4.50;99.90;;;;;;4941242;28;20055;-77
2023/01/24 09:41:46;;;;;;;3.78;2.58;;;4.50;99.90;;;;;;4940146;29;20098;-77
2023/01/24 09:44:31;;;;;;;4.25;2.67;;;4.60;99.90;;;;;;4970554;28;20442;-77
2023/01/24 09:46:58;;;;;;;3.85;3.10;;;4.60;99.90;;;;;;4954284;28;20447;-77
2023/01/24 09:49:47;;;;;;;3.95;2.88;;;4.60;99.90;;;;;;4940070;28;20142;-77
2023/01/24 09:52:37;;;;;;;3.30;2.40;;;4.60;99.90;;;;;;4958682;28;20235;-77
2023/01/24 09:55:34;;;;;;;3.50;2.60;;;4.70;99.90;;;;;;4946422;28;20189;-77
2023/01/24 09:58:01;;;;;;;3.00;2.38;;;4.70;99.90;;;;;;4951467;28;20054;-77
2023/01/24 10:00:29;;;;;;;2.83;2.15;;;4.70;99.90;;;;;;4946514;29;20129;-77
2023/01/24 10:02:58;;;;;;;3.55;2.40;;;4.60;99.90;;;;;;4961112;28;20078;-77
2023/01/24 10:05:30;;;;;;;2.97;2.30;;;4.60;99.90;;;;;;4961768;28;20118;-77
2023/01/24 10:08:11;;;;;;;2.72;2.35;;;4.70;99.90;;;;;;4960625;28;20200;-77
2023/01/24 10:11:06;;;;;;;3.55;2.38;;;4.70;99.90;;;;;;4975039;28;20502;-77
2023/01/24 10:13:54;;;;;;;3.08;2.25;;;4.70;99.90;;;;;;4974909;28;20137;-77
2023/01/24 10:16:45;;;;;;;3.75;2.58;;;4.70;99.90;;;;;;4944367;29;20078;-77
2023/01/24 10:19:30;;;;;;;3.33;2.50;;;4.70;99.90;;;;;;4947482;29;20054;-77
2023/01/24 10:22:14;;;;;;;3.67;2.88;;;4.80;99.90;;;;;;4948232;29;20075;-77
2023/01/24 10:24:43;;;;;;;4.20;3.00;;;4.70;99.90;;;;;;4956443;28;20141;-77
2023/01/24 10:27:35;;;;;;;3.50;2.72;;;4.80;99.90;;;;;;4943894;29;20566;-77
2023/01/24 10:30:23;;;;;;;4.15;3.03;;;4.80;99.90;;;;;;4942964;28;20374;-77
2023/01/24 10:32:52;;;;;;;2.72;2.35;;;4.80;99.90;;;;;;4956193;28;20139;-77
2023/01/24 10:35:26;;;;;;;3.50;2.80;;;4.80;99.90;;;;;;4941735;29;20456;-77
2023/01/24 10:37:55;;;;;;;3.42;2.80;;;4.80;99.90;;;;;;4961650;28;20059;-77
2023/01/24 10:40:24;;;;;;;3.97;2.83;;;4.80;99.90;;;;;;4975668;28;20055;-77
2023/01/24 10:42:51;;;;;;;2.95;2.65;;;4.80;99.90;;;;;;4942257;28;20169;-77
2023/01/24 10:45:50;;;;;;;5.35;3.55;;;4.80;99.90;;;;;;4975066;28;20059;-77
2023/01/24 10:48:26;;;;;;;4.10;3.53;;;4.70;99.90;;;;;;4945526;28;20114;-77
2023/01/24 10:50:53;;;;;;;4.55;2.53;;;4.70;99.90;;;;;;4946234;29;20047;-77
2023/01/24 10:53:25;;;;;;;3.33;2.80;;;4.80;99.90;;;;;;4945873;28;20083;-77
2023/01/24 10:56:03;;;;;;;2.67;2.30;;;4.90;99.90;;;;;;4959513;28;20055;-77
2023/01/24 10:58:35;;;;;;;2.90;2.40;;;5.00;99.90;;;;;;4973704;28;20171;-77
2023/01/24 11:01:06;;;;;;;3.42;2.65;;;5.00;99.90;;;;;;4958482;28;20086;-77
2023/01/24 11:03:36;;;;;;;4.15;2.63;;;5.00;99.90;;;;;;4973446;28;20086;-77
2023/01/24 11:06:03;;;;;;;6.30;3.72;;;4.90;99.90;;;;;;4957812;28;20451;-77
2023/01/24 11:08:36;;;;;;;3.28;2.90;;;4.90;99.90;;;;;;4957868;28;20051;-77
2023/01/24 11:11:17;;;;;;;3.05;2.38;;;4.90;99.90;;;;;;4938882;29;20491;-77
2023/01/24 11:13:43;;;;;;;2.70;1.95;;;5.00;99.90;;;;;;4970298;28;20134;-77
2023/01/24 11:16:16;;;;;;;2.20;2.00;;;5.10;99.90;;;;;;4958743;28;20563;-77
2023/01/24 11:18:49;;;;;;;2.67;2.30;;;5.20;99.90;;;;;;4945249;29;20074;-78
2023/01/24 11:21:17;;;;;;;2.08;1.77;;;5.30;99.90;;;;;;4976078;28;20189;-77
2023/01/24 11:23:44;;;;;;;2.83;2.20;;;5.40;99.90;;;;;;4942566;28;20340;-77
2023/01/24 11:26:25;;;;;;;2.75;2.20;;;5.30;99.90;;;;;;4956958;28;20106;-76
2023/01/24 11:28:58;;;;;;;4.40;2.80;;;5.30;99.90;;;;;;4957116;28;20139;-77
2023/01/24 11:31:31;;;;;;;;;;;5.20;99.90;;;;;;4944275;28;20526;-77
2023/01/24 11:34:14;;;;;;;2.47;1.88;;;5.30;99.90;;;;;;4944255;29;20021;-77
2023/01/24 11:36:45;;;;;;;2.75;2.05;;;5.30;99.90;;;;;;4945896;29;20047;-78
2023/01/24 11:39:25;;;;;;;2.55;2.08;;;5.40;99.90;;;;;;4975808;28;20125;-77
2023/01/24 11:41:59;;;;;;;3.45;2.80;;;5.40;99.90;;;;;;4959300;28;20099;-77
2023/01/24 11:44:35;;;;;;;3.30;2.75;;;5.30;99.90;;;;;;4960483;28;20074;-77
2023/01/24 11:47:08;;;;;;;2.45;2.00;;;5.40;99.90;;;;;;4973499;28;20138;-77
2023/01/24 11:49:53;;;;;;;3.53;2.53;;;5.50;99.90;;;;;;4939497;29;20262;-77
2023/01/24 11:52:39;;;;;;;2.83;2.15;;;5.50;99.90;;;;;;4973246;28;20106;-77
2023/01/24 11:55:27;;;;;;;2.30;1.98;;;5.50;99.90;;;;;;4941808;28;20090;-77
2023/01/24 11:58:04;;;;;;;3.85;2.78;;;5.60;99.90;;;;;;4943415;28;20519;-77
2023/01/24 12:00:51;;;;;;;3.25;1.98;;;5.60;99.90;;;;;;4973412;28;20177;-76
2023/01/24 12:03:24;;;;;;;2.30;1.95;;;5.70;99.90;;;;;;4956438;28;20514;-78
2023/01/24 12:06:02;;;;;;;2.53;2.28;;;5.70;99.90;;;;;;4938000;28;20101;-77
2023/01/24 12:08:34;;;;;;;2.40;2.00;;;5.70;99.90;;;;;;4969452;28;20078;-77
2023/01/24 12:11:25;;;;;;;2.90;2.03;;;5.70;99.90;;;;;;4952005;28;20059;-76
2023/01/24 12:14:23;;;;;;;3.22;2.60;;;5.80;99.90;;;;;;4943095;29;20134;-77
2023/01/24 12:16:53;;;;;;;3.10;1.95;;;5.80;99.90;;;;;;4942160;29;20043;-77
2023/01/24 12:19:51;;;;;;;2.72;2.45;;;5.80;99.90;;;;;;4940543;28;20047;-77
2023/01/24 12:22:23;;;;;;;2.47;2.25;;;5.90;99.90;;;;;;4969562;28;20636;-77
2023/01/24 12:24:57;;;;;;;2.78;2.10;;;5.90;99.90;;;;;;4929830;28;20490;-77
2023/01/24 12:27:25;;;;;;;2.83;2.22;;;6.00;99.90;;;;;;4947692;28;20142;-77
2023/01/24 12:30:02;;;;;;;3.47;2.90;;;6.00;99.90;;;;;;4962167;28;20150;-78
2023/01/24 12:32:40;;;;;;;3.08;2.53;;;6.00;99.90;;;;;;4951637;28;20306;-77
2023/01/24 12:35:27;;;;;;;2.50;2.22;;;6.10;99.90;;;;;;4947521;28;20445;-77
2023/01/24 12:38:37;;;;;;;2.78;2.33;;;6.00;99.90;;;;;;4949336;28;20043;-79
2023/01/24 12:41:23;;;;;;;3.13;2.55;;;6.10;99.90;;;;;;4935222;28;20039;-79
2023/01/24 12:44:09;;;;;;;2.65;2.40;;;6.20;99.90;;;;;;4928302;28;20064;-82
2023/01/24 12:46:42;;;;;;;2.78;2.45;;;6.30;99.90;;;;;;4934936;28;20055;-82
2023/01/24 12:49:37;;;;;;;3.60;2.60;;;6.10;99.90;;;;;;4967081;28;20051;-82
2023/01/24 12:52:33;;;;;;;3.15;2.63;;;6.10;99.90;;;;;;4932908;28;20562;-82
2023/01/24 12:55:13;;;;;;;3.20;2.80;;;6.10;99.90;;;;;;4961794;28;20064;-83
2023/01/24 12:58:00;;;;;;;3.00;2.45;;;6.20;99.90;;;;;;4966981;28;20147;-83
2023/01/24 13:00:50;;;;;;;3.35;2.92;;;6.10;99.90;;;;;;4963486;28;20059;-83
2023/01/24 13:03:42;;;;;;;3.35;2.88;;;6.10;99.90;;;;;;4931233;28;20051;-81
2023/01/24 13:06:27;;;;;;;4.25;3.45;;;6.10;99.90;;;;;;4935174;29;20482;-82
2023/01/24 13:09:07;;;;;;;3.42;3.13;;;6.10;99.90;;;;;;4936244;29;20086;-82
2023/01/24 13:11:39;;;;;;;4.18;3.13;;;6.20;99.90;;;;;;4966803;28;20071;-82
2023/01/24 13:14:38;;;;;;;3.67;2.42;;;6.20;99.90;;;;;;4951214;28;20043;-83
2023/01/24 13:17:23;;;;;;;3.33;2.63;;;6.30;99.90;;;;;;4967658;28;20311;-83
2023/01/24 13:20:38;;;;;;;2.78;2.47;;;6.20;99.90;;;;;;4966790;28;20077;-82
2023/01/24 13:23:31;;;;;;;2.67;2.13;;;6.40;99.90;;;;;;4929769;28;20051;-83
2023/01/24 13:26:07;;;;;;;4.10;2.92;;;6.40;99.90;;;;;;4954435;28;20054;-83
2023/01/24 13:29:12;;;;;;;4.97;2.80;;;6.30;99.90;;;;;;4971820;28;20174;-82
2023/01/24 13:31:56;;;;;;;4.18;2.80;;;6.20;99.90;;;;;;4938936;28;20094;-83
2023/01/24 13:34:31;;;;;;;4.32;3.47;;;6.30;99.90;;;;;;4963936;28;20497;-83
2023/01/24 13:36:58;;;;;;;2.97;2.58;;;6.20;99.90;;;;;;4968147;28;20051;-83
2023/01/24 13:39:29;;;;;;;2.97;2.47;;;6.20;99.90;;;;;;4951582;28;20094;-83
2023/01/24 13:42:19;;;;;;;3.63;3.28;;;6.20;99.90;;;;;;4970013;28;20067;-83
2023/01/24 13:44:46;;;;;;;4.75;3.83;;;6.20;99.90;;;;;;4951199;28;20051;-82
2023/01/24 13:47:16;;;;;;;4.05;3.40;;;6.10;99.90;;;;;;4944239;28;20059;-83
2023/01/24 13:50:03;;;;;;;3.13;2.65;;;6.10;99.90;;;;;;4928305;29;20324;-83
2023/01/24 13:52:33;;;;;;;4.20;3.08;;;6.20;99.90;;;;;;4967359;28;20063;-83
2023/01/24 13:55:01;;;;;;;3.00;2.47;;;6.30;99.90;;;;;;4933075;29;20134;-83
2023/01/24 13:57:29;;;;;;;2.50;2.22;;;6.30;99.90;;;;;;4933853;29;20810;-83